TimeEDT,TemperatureF,Dew PointF,Humidity,Sea Level PressureIn,VisibilityMPH,Wind Direction,Wind SpeedMPH,Gust SpeedMPH,PrecipitationIn,Events,Conditions,WindDirDegrees,DateUTC
12:53 AM,63.0,60.1,90,30.24,10.0,Calm,Calm,-,N/A,,Clear,0,2013-08-26 04:53:00
1:53 AM,63.0,61.0,93,30.24,10.0,Calm,Calm,-,N/A,,Clear,0,2013-08-26 05:53:00
2:53 AM,63.0,60.1,90,30.22,10.0,Calm,Calm,-,N/A,,Clear,0,2013-08-26 06:53:00
3:53 AM,63.0,61.0,93,30.22,10.0,Calm,Calm,-,N/A,,Clear,0,2013-08-26 07:53:00
4:53 AM,68.0,64.9,90,30.21,9.0,SW,3.5,-,N/A,,Clear,230,2013-08-26 08:53:00
5:53 AM,66.9,64.9,93,30.21,7.0,SW,3.5,-,N/A,,Clear,230,2013-08-26 09:53:00
6:53 AM,68.0,66.9,96,30.21,6.0,SW,4.6,-,N/A,,Clear,230,2013-08-26 10:53:00
7:53 AM,69.1,68.0,96,30.23,4.0,WSW,3.5,-,N/A,,Clear,240,2013-08-26 11:53:00
8:53 AM,73.0,70.0,90,30.25,6.0,WSW,5.8,-,N/A,,Clear,240,2013-08-26 12:53:00
9:53 AM,77.0,71.1,82,30.25,8.0,West,6.9,-,N/A,,Clear,260,2013-08-26 13:53:00
10:53 AM,81.0,72.0,74,30.24,10.0,WSW,10.4,17.3,N/A,,Clear,250,2013-08-26 14:53:00
11:53 AM,84.0,70.0,63,30.22,10.0,West,9.2,-,N/A,,Clear,260,2013-08-26 15:53:00
12:53 PM,84.9,71.1,63,30.21,10.0,West,6.9,-,N/A,,Partly Cloudy,260,2013-08-26 16:53:00
1:53 PM,87.1,69.1,55,30.19,10.0,Variable,4.6,-,N/A,,Partly Cloudy,0,2013-08-26 17:53:00
2:53 PM,87.1,66.9,51,30.17,10.0,Variable,5.8,-,N/A,,Clear,0,2013-08-26 18:53:00
3:53 PM,86.0,68.0,55,30.14,10.0,Variable,4.6,-,N/A,,Partly Cloudy,0,2013-08-26 19:53:00
4:53 PM,86.0,69.1,57,30.12,10.0,West,4.6,-,N/A,,Partly Cloudy,270,2013-08-26 20:53:00
5:53 PM,87.1,69.1,55,30.10,10.0,SW,9.2,-,N/A,,Partly Cloudy,220,2013-08-26 21:53:00
6:53 PM,84.9,69.1,59,30.10,10.0,WSW,4.6,-,N/A,,Clear,250,2013-08-26 22:53:00
7:53 PM,82.0,70.0,67,30.09,10.0,WSW,3.5,-,N/A,,Clear,240,2013-08-26 23:53:00
8:53 PM,77.0,70.0,79,30.10,10.0,Calm,Calm,-,N/A,,Clear,0,2013-08-27 00:53:00
9:53 PM,73.0,70.0,90,30.11,8.0,Calm,Calm,-,N/A,,Clear,0,2013-08-27 01:53:00
10:53 PM,73.0,69.1,87,30.10,7.0,SW,3.5,-,N/A,,Clear,230,2013-08-27 02:53:00
11:53 PM,73.9,71.1,91,30.10,7.0,SW,3.5,-,N/A,,Clear,230,2013-08-27 03:53:00